sensor_id;sensor_type;location;lat;lon;timestamp;P1;durP1;ratioP1;P2;durP2;ratioP2
31782;SDS011;18351;47.560;9.708;2023-02-15T00:01:33;90.90;;;40.78;;
31782;SDS011;18351;47.560;9.708;2023-02-15T00:03:59;90.45;;;39.38;;
31782;SDS011;18351;47.560;9.708;2023-02-15T00:06:25;83.32;;;38.67;;
31782;SDS011;18351;47.560;9.708;2023-02-15T00:08:51;115.90;;;40.33;;
31782;SDS011;18351;47.560;9.708;2023-02-15T00:11:18;78.28;;;38.47;;
31782;SDS011;18351;47.560;9.708;2023-02-15T00:14:02;108.80;;;38.75;;
31782;SDS011;18351;47.560;9.708;2023-02-15T00:16:29;108.30;;;43.70;;
31782;SDS011;18351;47.560;9.708;2023-02-15T00:18:55;114.38;;;44.78;;
31782;SDS011;18351;47.560;9.708;2023-02-15T00:21:20;151.05;;;51.83;;
31782;SDS011;18351;47.560;9.708;2023-02-15T00:23:46;126.32;;;50.25;;
31782;SDS011;18351;47.560;9.708;2023-02-15T00:26:11;98.90;;;46.20;;
31782;SDS011;18351;47.560;9.708;2023-02-15T00:28:37;122.35;;;46.15;;
31782;SDS011;18351;47.560;9.708;2023-02-15T00:31:07;92.63;;;41.70;;
31782;SDS011;18351;47.560;9.708;2023-02-15T00:33:35;96.30;;;41.60;;
31782;SDS011;18351;47.560;9.708;2023-02-15T00:36:02;90.72;;;42.20;;
31782;SDS011;18351;47.560;9.708;2023-02-15T00:38:29;97.68;;;42.72;;
31782;SDS011;18351;47.560;9.708;2023-02-15T00:40:57;93.15;;;42.38;;
31782;SDS011;18351;47.560;9.708;2023-02-15T00:43:24;93.72;;;39.95;;
31782;SDS011;18351;47.560;9.708;2023-02-15T00:45:50;81.25;;;37.90;;
31782;SDS011;18351;47.560;9.708;2023-02-15T00:48:16;90.07;;;40.00;;
31782;SDS011;18351;47.560;9.708;2023-02-15T00:50:41;78.65;;;40.17;;
31782;SDS011;18351;47.560;9.708;2023-02-15T00:53:09;84.57;;;41.30;;
31782;SDS011;18351;47.560;9.708;2023-02-15T00:55:36;78.80;;;38.50;;
31782;SDS011;18351;47.560;9.708;2023-02-15T00:58:01;77.22;;;37.60;;
31782;SDS011;18351;47.560;9.708;2023-02-15T01:00:27;72.05;;;35.85;;
31782;SDS011;18351;47.560;9.708;2023-02-15T01:02:53;82.15;;;38.40;;
31782;SDS011;18351;47.560;9.708;2023-02-15T01:05:18;85.78;;;39.30;;
31782;SDS011;18351;47.560;9.708;2023-02-15T01:07:44;84.60;;;39.08;;
31782;SDS011;18351;47.560;9.708;2023-02-15T01:10:09;79.90;;;36.28;;
31782;SDS011;18351;47.560;9.708;2023-02-15T01:12:35;82.25;;;37.65;;
31782;SDS011;18351;47.560;9.708;2023-02-15T01:15:00;82.75;;;38.03;;
31782;SDS011;18351;47.560;9.708;2023-02-15T01:17:26;82.57;;;38.13;;
31782;SDS011;18351;47.560;9.708;2023-02-15T01:19:51;88.65;;;39.50;;
31782;SDS011;18351;47.560;9.708;2023-02-15T01:22:17;79.22;;;36.58;;
31782;SDS011;18351;47.560;9.708;2023-02-15T01:24:43;80.43;;;37.58;;
31782;SDS011;18351;47.560;9.708;2023-02-15T01:27:09;78.78;;;36.08;;
31782;SDS011;18351;47.560;9.708;2023-02-15T01:29:34;97.20;;;37.65;;
31782;SDS011;18351;47.560;9.708;2023-02-15T01:32:00;96.35;;;37.40;;
31782;SDS011;18351;47.560;9.708;2023-02-15T01:34:26;88.65;;;39.75;;
31782;SDS011;18351;47.560;9.708;2023-02-15T01:36:51;80.90;;;38.83;;
31782;SDS011;18351;47.560;9.708;2023-02-15T01:39:17;80.78;;;37.47;;
31782;SDS011;18351;47.560;9.708;2023-02-15T01:41:42;73.97;;;34.85;;
31782;SDS011;18351;47.560;9.708;2023-02-15T01:47:11;83.32;;;37.30;;
31782;SDS011;18351;47.560;9.708;2023-02-15T01:49:42;72.32;;;34.95;;
31782;SDS011;18351;47.560;9.708;2023-02-15T01:52:10;86.88;;;36.55;;
31782;SDS011;18351;47.560;9.708;2023-02-15T01:54:41;91.45;;;35.80;;
31782;SDS011;18351;47.560;9.708;2023-02-15T01:57:14;76.88;;;34.45;;
31782;SDS011;18351;47.560;9.708;2023-02-15T01:59:43;80.27;;;36.53;;
31782;SDS011;18351;47.560;9.708;2023-02-15T02:02:13;89.00;;;37.38;;
31782;SDS011;18351;47.560;9.708;2023-02-15T02:04:41;87.90;;;36.10;;
31782;SDS011;18351;47.560;9.708;2023-02-15T02:07:17;91.18;;;37.92;;
31782;SDS011;18351;47.560;9.708;2023-02-15T02:09:45;82.38;;;36.53;;
31782;SDS011;18351;47.560;9.708;2023-02-15T02:12:11;84.25;;;37.90;;
31782;SDS011;18351;47.560;9.708;2023-02-15T02:14:37;81.40;;;36.63;;
31782;SDS011;18351;47.560;9.708;2023-02-15T02:19:53;89.45;;;37.70;;
31782;SDS011;18351;47.560;9.708;2023-02-15T02:25:17;115.10;;;41.58;;
31782;SDS011;18351;47.560;9.708;2023-02-15T02:31:25;111.13;;;39.83;;
31782;SDS011;18351;47.560;9.708;2023-02-15T02:33:51;112.93;;;39.38;;
31782;SDS011;18351;47.560;9.708;2023-02-15T02:36:28;90.75;;;37.60;;
31782;SDS011;18351;47.560;9.708;2023-02-15T02:39:20;106.55;;;42.25;;
31782;SDS011;18351;47.560;9.708;2023-02-15T02:44:42;92.90;;;38.50;;
31782;SDS011;18351;47.560;9.708;2023-02-15T02:47:20;105.75;;;40.55;;
31782;SDS011;18351;47.560;9.708;2023-02-15T02:50:28;125.88;;;42.42;;
31782;SDS011;18351;47.560;9.708;2023-02-15T02:52:55;106.57;;;40.67;;
31782;SDS011;18351;47.560;9.708;2023-02-15T02:57:55;128.88;;;41.17;;
31782;SDS011;18351;47.560;9.708;2023-02-15T03:00:44;91.35;;;40.03;;
31782;SDS011;18351;47.560;9.708;2023-02-15T03:03:20;109.90;;;40.50;;
31782;SDS011;18351;47.560;9.708;2023-02-15T03:05:54;91.80;;;40.58;;
31782;SDS011;18351;47.560;9.708;2023-02-15T03:08:22;94.68;;;40.05;;
31782;SDS011;18351;47.560;9.708;2023-02-15T03:10:53;100.47;;;38.65;;
31782;SDS011;18351;47.560;9.708;2023-02-15T03:13:22;112.25;;;40.05;;
31782;SDS011;18351;47.560;9.708;2023-02-15T03:15:48;122.07;;;41.90;;
31782;SDS011;18351;47.560;9.708;2023-02-15T03:18:38;123.43;;;43.53;;
31782;SDS011;18351;47.560;9.708;2023-02-15T03:21:08;98.53;;;39.28;;
31782;SDS011;18351;47.560;9.708;2023-02-15T03:23:47;131.80;;;43.92;;
31782;SDS011;18351;47.560;9.708;2023-02-15T03:26:19;126.63;;;44.55;;
31782;SDS011;18351;47.560;9.708;2023-02-15T03:28:47;90.70;;;39.67;;
31782;SDS011;18351;47.560;9.708;2023-02-15T03:31:17;111.78;;;42.58;;
31782;SDS011;18351;47.560;9.708;2023-02-15T03:33:59;91.85;;;40.47;;
31782;SDS011;18351;47.560;9.708;2023-02-15T03:36:34;99.63;;;40.85;;
31782;SDS011;18351;47.560;9.708;2023-02-15T03:39:21;94.68;;;39.35;;
31782;SDS011;18351;47.560;9.708;2023-02-15T03:42:05;117.47;;;41.58;;
31782;SDS011;18351;47.560;9.708;2023-02-15T03:45:24;104.38;;;39.92;;
31782;SDS011;18351;47.560;9.708;2023-02-15T03:47:27;109.30;;;41.75;;
31782;SDS011;18351;47.560;9.708;2023-02-15T03:50:00;87.30;;;39.45;;
31782;SDS011;18351;47.560;9.708;2023-02-15T03:52:52;93.55;;;39.85;;
31782;SDS011;18351;47.560;9.708;2023-02-15T03:55:20;105.93;;;40.67;;
31782;SDS011;18351;47.560;9.708;2023-02-15T03:57:46;100.75;;;41.75;;
31782;SDS011;18351;47.560;9.708;2023-02-15T04:00:30;96.50;;;38.97;;
31782;SDS011;18351;47.560;9.708;2023-02-15T04:03:30;96.45;;;39.20;;
31782;SDS011;18351;47.560;9.708;2023-02-15T04:06:08;99.40;;;40.50;;
31782;SDS011;18351;47.560;9.708;2023-02-15T04:08:34;112.15;;;40.67;;
31782;SDS011;18351;47.560;9.708;2023-02-15T04:11:18;93.95;;;40.20;;
31782;SDS011;18351;47.560;9.708;2023-02-15T04:13:43;97.88;;;40.58;;
31782;SDS011;18351;47.560;9.708;2023-02-15T04:16:09;100.13;;;40.97;;
31782;SDS011;18351;47.560;9.708;2023-02-15T04:18:38;100.10;;;40.00;;
31782;SDS011;18351;47.560;9.708;2023-02-15T04:21:24;102.00;;;39.88;;
31782;SDS011;18351;47.560;9.708;2023-02-15T04:24:10;93.88;;;38.72;;
31782;SDS011;18351;47.560;9.708;2023-02-15T04:26:55;96.95;;;39.83;;
31782;SDS011;18351;47.560;9.708;2023-02-15T04:29:21;94.07;;;39.25;;
31782;SDS011;18351;47.560;9.708;2023-02-15T04:31:48;89.90;;;37.20;;
31782;SDS011;18351;47.560;9.708;2023-02-15T04:34:15;98.82;;;40.33;;
31782;SDS011;18351;47.560;9.708;2023-02-15T04:36:41;95.22;;;39.53;;
31782;SDS011;18351;47.560;9.708;2023-02-15T04:39:07;145.77;;;43.35;;
31782;SDS011;18351;47.560;9.708;2023-02-15T04:41:33;92.30;;;39.75;;
31782;SDS011;18351;47.560;9.708;2023-02-15T04:43:59;95.05;;;40.45;;
31782;SDS011;18351;47.560;9.708;2023-02-15T04:46:26;94.38;;;40.97;;
31782;SDS011;18351;47.560;9.708;2023-02-15T04:48:52;127.18;;;40.90;;
31782;SDS011;18351;47.560;9.708;2023-02-15T04:51:18;97.05;;;39.38;;
31782;SDS011;18351;47.560;9.708;2023-02-15T04:53:44;92.75;;;38.53;;
31782;SDS011;18351;47.560;9.708;2023-02-15T04:56:09;89.03;;;37.25;;
31782;SDS011;18351;47.560;9.708;2023-02-15T04:58:35;93.55;;;37.88;;
31782;SDS011;18351;47.560;9.708;2023-02-15T05:01:01;89.47;;;38.47;;
31782;SDS011;18351;47.560;9.708;2023-02-15T05:03:27;88.22;;;37.72;;
31782;SDS011;18351;47.560;9.708;2023-02-15T05:05:53;86.18;;;37.65;;
31782;SDS011;18351;47.560;9.708;2023-02-15T05:08:19;94.18;;;38.78;;
31782;SDS011;18351;47.560;9.708;2023-02-15T05:10:47;82.22;;;36.00;;
31782;SDS011;18351;47.560;9.708;2023-02-15T05:13:13;93.00;;;35.10;;
31782;SDS011;18351;47.560;9.708;2023-02-15T05:15:39;160.90;;;38.65;;
31782;SDS011;18351;47.560;9.708;2023-02-15T05:18:04;81.70;;;35.83;;
31782;SDS011;18351;47.560;9.708;2023-02-15T05:20:31;112.03;;;34.65;;
31782;SDS011;18351;47.560;9.708;2023-02-15T05:22:56;85.00;;;36.33;;
31782;SDS011;18351;47.560;9.708;2023-02-15T05:25:22;77.75;;;33.83;;
31782;SDS011;18351;47.560;9.708;2023-02-15T05:28:08;82.32;;;34.90;;
31782;SDS011;18351;47.560;9.708;2023-02-15T05:30:44;73.80;;;33.97;;
31782;SDS011;18351;47.560;9.708;2023-02-15T05:33:10;68.90;;;33.03;;
31782;SDS011;18351;47.560;9.708;2023-02-15T05:35:35;72.03;;;33.15;;
31782;SDS011;18351;47.560;9.708;2023-02-15T05:38:01;71.72;;;33.95;;
31782;SDS011;18351;47.560;9.708;2023-02-15T05:40:26;78.53;;;33.67;;
31782;SDS011;18351;47.560;9.708;2023-02-15T05:42:52;71.32;;;33.13;;
31782;SDS011;18351;47.560;9.708;2023-02-15T05:45:17;69.72;;;32.72;;
31782;SDS011;18351;47.560;9.708;2023-02-15T05:47:43;88.13;;;36.80;;
31782;SDS011;18351;47.560;9.708;2023-02-15T05:50:09;117.28;;;35.17;;
31782;SDS011;18351;47.560;9.708;2023-02-15T05:52:36;82.25;;;33.60;;
31782;SDS011;18351;47.560;9.708;2023-02-15T05:55:02;76.82;;;33.72;;
31782;SDS011;18351;47.560;9.708;2023-02-15T05:57:29;82.03;;;34.20;;
31782;SDS011;18351;47.560;9.708;2023-02-15T05:59:54;69.28;;;33.13;;
31782;SDS011;18351;47.560;9.708;2023-02-15T06:02:20;77.47;;;33.92;;
31782;SDS011;18351;47.560;9.708;2023-02-15T06:04:46;74.28;;;34.85;;
31782;SDS011;18351;47.560;9.708;2023-02-15T06:07:11;74.47;;;32.38;;
31782;SDS011;18351;47.560;9.708;2023-02-15T06:09:37;69.57;;;32.90;;
31782;SDS011;18351;47.560;9.708;2023-02-15T06:12:02;69.63;;;31.50;;
31782;SDS011;18351;47.560;9.708;2023-02-15T06:14:28;67.93;;;31.33;;
31782;SDS011;18351;47.560;9.708;2023-02-15T06:16:53;75.55;;;33.78;;
31782;SDS011;18351;47.560;9.708;2023-02-15T06:19:19;128.02;;;35.25;;
31782;SDS011;18351;47.560;9.708;2023-02-15T06:21:45;86.88;;;35.45;;
31782;SDS011;18351;47.560;9.708;2023-02-15T06:24:14;73.57;;;31.95;;
31782;SDS011;18351;47.560;9.708;2023-02-15T06:26:40;77.15;;;32.88;;
31782;SDS011;18351;47.560;9.708;2023-02-15T06:29:06;109.00;;;34.78;;
31782;SDS011;18351;47.560;9.708;2023-02-15T06:31:31;74.45;;;31.52;;
31782;SDS011;18351;47.560;9.708;2023-02-15T06:33:57;79.47;;;33.70;;
31782;SDS011;18351;47.560;9.708;2023-02-15T06:36:26;73.50;;;33.10;;
31782;SDS011;18351;47.560;9.708;2023-02-15T06:38:53;80.28;;;33.63;;
31782;SDS011;18351;47.560;9.708;2023-02-15T06:41:19;78.68;;;33.13;;
31782;SDS011;18351;47.560;9.708;2023-02-15T06:43:44;74.15;;;32.75;;
31782;SDS011;18351;47.560;9.708;2023-02-15T06:46:10;70.65;;;30.88;;
31782;SDS011;18351;47.560;9.708;2023-02-15T06:48:35;69.03;;;32.10;;
31782;SDS011;18351;47.560;9.708;2023-02-15T06:51:01;71.43;;;30.70;;
31782;SDS011;18351;47.560;9.708;2023-02-15T06:53:26;68.90;;;29.42;;
31782;SDS011;18351;47.560;9.708;2023-02-15T06:55:52;75.15;;;32.22;;
31782;SDS011;18351;47.560;9.708;2023-02-15T06:58:17;66.40;;;32.20;;
31782;SDS011;18351;47.560;9.708;2023-02-15T07:00:43;94.65;;;36.88;;
31782;SDS011;18351;47.560;9.708;2023-02-15T07:03:09;108.55;;;36.95;;
31782;SDS011;18351;47.560;9.708;2023-02-15T07:05:39;71.25;;;31.98;;
31782;SDS011;18351;47.560;9.708;2023-02-15T07:08:05;71.80;;;33.72;;
31782;SDS011;18351;47.560;9.708;2023-02-15T07:10:30;72.80;;;32.75;;
31782;SDS011;18351;47.560;9.708;2023-02-15T07:12:56;70.05;;;32.17;;
31782;SDS011;18351;47.560;9.708;2023-02-15T07:15:21;69.55;;;31.92;;
31782;SDS011;18351;47.560;9.708;2023-02-15T07:17:47;67.30;;;32.08;;
31782;SDS011;18351;47.560;9.708;2023-02-15T07:20:15;70.47;;;30.80;;
31782;SDS011;18351;47.560;9.708;2023-02-15T07:22:43;68.00;;;29.73;;
31782;SDS011;18351;47.560;9.708;2023-02-15T07:25:09;72.15;;;31.77;;
31782;SDS011;18351;47.560;9.708;2023-02-15T07:27:35;64.10;;;30.20;;
31782;SDS011;18351;47.560;9.708;2023-02-15T07:30:01;76.68;;;32.35;;
31782;SDS011;18351;47.560;9.708;2023-02-15T07:32:28;67.88;;;30.83;;
31782;SDS011;18351;47.560;9.708;2023-02-15T07:34:56;67.72;;;30.25;;
31782;SDS011;18351;47.560;9.708;2023-02-15T07:37:22;68.70;;;32.20;;
31782;SDS011;18351;47.560;9.708;2023-02-15T07:39:47;65.93;;;31.63;;
31782;SDS011;18351;47.560;9.708;2023-02-15T07:42:13;126.47;;;54.95;;
31782;SDS011;18351;47.560;9.708;2023-02-15T07:44:38;78.93;;;36.55;;
31782;SDS011;18351;47.560;9.708;2023-02-15T07:47:04;68.10;;;30.60;;
31782;SDS011;18351;47.560;9.708;2023-02-15T07:49:29;57.47;;;29.10;;
31782;SDS011;18351;47.560;9.708;2023-02-15T07:51:55;55.20;;;29.08;;
31782;SDS011;18351;47.560;9.708;2023-02-15T07:54:21;57.58;;;29.85;;
31782;SDS011;18351;47.560;9.708;2023-02-15T07:56:46;60.40;;;32.15;;
31782;SDS011;18351;47.560;9.708;2023-02-15T07:59:12;59.45;;;28.25;;
31782;SDS011;18351;47.560;9.708;2023-02-15T08:01:39;53.95;;;27.40;;
31782;SDS011;18351;47.560;9.708;2023-02-15T08:04:05;61.22;;;31.30;;
31782;SDS011;18351;47.560;9.708;2023-02-15T08:06:33;54.63;;;27.67;;
31782;SDS011;18351;47.560;9.708;2023-02-15T08:09:00;56.13;;;27.85;;
31782;SDS011;18351;47.560;9.708;2023-02-15T08:11:29;52.30;;;28.27;;
31782;SDS011;18351;47.560;9.708;2023-02-15T08:14:14;41.22;;;21.63;;
31782;SDS011;18351;47.560;9.708;2023-02-15T08:16:47;49.75;;;26.10;;
31782;SDS011;18351;47.560;9.708;2023-02-15T08:19:24;47.30;;;26.52;;
31782;SDS011;18351;47.560;9.708;2023-02-15T08:21:55;62.00;;;28.55;;
31782;SDS011;18351;47.560;9.708;2023-02-15T08:24:22;62.65;;;29.85;;
31782;SDS011;18351;47.560;9.708;2023-02-15T08:26:49;56.30;;;27.80;;
31782;SDS011;18351;47.560;9.708;2023-02-15T08:29:17;64.10;;;31.58;;
31782;SDS011;18351;47.560;9.708;2023-02-15T08:31:44;56.65;;;31.13;;
31782;SDS011;18351;47.560;9.708;2023-02-15T08:34:13;65.97;;;32.95;;
31782;SDS011;18351;47.560;9.708;2023-02-15T08:36:42;59.33;;;31.60;;
31782;SDS011;18351;47.560;9.708;2023-02-15T08:39:10;120.47;;;58.85;;
31782;SDS011;18351;47.560;9.708;2023-02-15T08:41:36;63.95;;;33.65;;
31782;SDS011;18351;47.560;9.708;2023-02-15T08:44:04;54.88;;;29.45;;
31782;SDS011;18351;47.560;9.708;2023-02-15T08:46:32;65.35;;;31.35;;
31782;SDS011;18351;47.560;9.708;2023-02-15T08:49:03;101.00;;;49.42;;
31782;SDS011;18351;47.560;9.708;2023-02-15T08:51:30;59.20;;;30.17;;
31782;SDS011;18351;47.560;9.708;2023-02-15T08:53:58;55.58;;;27.83;;
31782;SDS011;18351;47.560;9.708;2023-02-15T08:56:26;53.58;;;27.02;;
31782;SDS011;18351;47.560;9.708;2023-02-15T08:58:53;55.08;;;27.73;;
31782;SDS011;18351;47.560;9.708;2023-02-15T09:01:21;51.85;;;26.80;;
31782;SDS011;18351;47.560;9.708;2023-02-15T09:03:51;53.58;;;28.02;;
31782;SDS011;18351;47.560;9.708;2023-02-15T09:06:20;52.72;;;26.38;;
31782;SDS011;18351;47.560;9.708;2023-02-15T09:08:47;52.20;;;28.08;;
31782;SDS011;18351;47.560;9.708;2023-02-15T09:11:17;59.20;;;28.92;;
31782;SDS011;18351;47.560;9.708;2023-02-15T09:13:59;56.03;;;28.15;;
31782;SDS011;18351;47.560;9.708;2023-02-15T09:16:27;49.13;;;25.63;;
31782;SDS011;18351;47.560;9.708;2023-02-15T09:18:55;57.17;;;28.38;;
31782;SDS011;18351;47.560;9.708;2023-02-15T09:21:24;54.17;;;27.92;;
31782;SDS011;18351;47.560;9.708;2023-02-15T09:23:51;58.05;;;29.33;;
31782;SDS011;18351;47.560;9.708;2023-02-15T09:26:20;59.50;;;27.80;;
31782;SDS011;18351;47.560;9.708;2023-02-15T09:28:50;53.15;;;27.60;;
31782;SDS011;18351;47.560;9.708;2023-02-15T09:31:19;53.05;;;26.88;;
31782;SDS011;18351;47.560;9.708;2023-02-15T09:33:46;55.95;;;27.67;;
31782;SDS011;18351;47.560;9.708;2023-02-15T09:36:20;66.78;;;36.40;;
31782;SDS011;18351;47.560;9.708;2023-02-15T09:38:47;58.63;;;29.63;;
31782;SDS011;18351;47.560;9.708;2023-02-15T09:41:28;58.83;;;30.00;;
31782;SDS011;18351;47.560;9.708;2023-02-15T10:03:53;53.25;;;28.27;;
31782;SDS011;18351;47.560;9.708;2023-02-15T10:06:42;54.53;;;26.95;;
31782;SDS011;18351;47.560;9.708;2023-02-15T10:14:46;64.70;;;35.63;;
31782;SDS011;18351;47.560;9.708;2023-02-15T10:17:19;52.30;;;27.55;;
31782;SDS011;18351;47.560;9.708;2023-02-15T10:20:00;57.45;;;28.88;;
31782;SDS011;18351;47.560;9.708;2023-02-15T10:28:15;57.83;;;29.48;;
31782;SDS011;18351;47.560;9.708;2023-02-15T10:30:49;56.60;;;29.27;;
31782;SDS011;18351;47.560;9.708;2023-02-15T10:36:03;50.30;;;28.10;;
31782;SDS011;18351;47.560;9.708;2023-02-15T10:43:57;53.47;;;27.05;;
31782;SDS011;18351;47.560;9.708;2023-02-15T10:46:51;52.80;;;27.65;;
31782;SDS011;18351;47.560;9.708;2023-02-15T10:52:22;46.08;;;26.45;;
31782;SDS011;18351;47.560;9.708;2023-02-15T11:07:12;50.78;;;26.15;;
31782;SDS011;18351;47.560;9.708;2023-02-15T11:09:52;53.45;;;27.15;;
31782;SDS011;18351;47.560;9.708;2023-02-15T11:12:26;50.70;;;26.27;;
31782;SDS011;18351;47.560;9.708;2023-02-15T11:15:04;54.65;;;26.85;;
31782;SDS011;18351;47.560;9.708;2023-02-15T11:17:42;48.38;;;27.27;;
31782;SDS011;18351;47.560;9.708;2023-02-15T11:22:52;48.97;;;25.02;;
31782;SDS011;18351;47.560;9.708;2023-02-15T11:25:19;44.30;;;24.83;;
31782;SDS011;18351;47.560;9.708;2023-02-15T11:27:49;42.28;;;23.73;;
31782;SDS011;18351;47.560;9.708;2023-02-15T11:30:25;41.90;;;23.10;;
31782;SDS011;18351;47.560;9.708;2023-02-15T11:33:12;48.47;;;24.10;;
31782;SDS011;18351;47.560;9.708;2023-02-15T11:36:11;42.60;;;23.38;;
31782;SDS011;18351;47.560;9.708;2023-02-15T11:38:43;46.92;;;24.15;;
31782;SDS011;18351;47.560;9.708;2023-02-15T11:41:13;44.38;;;23.75;;
31782;SDS011;18351;47.560;9.708;2023-02-15T11:46:42;50.50;;;26.65;;
31782;SDS011;18351;47.560;9.708;2023-02-15T11:49:25;49.53;;;24.45;;
31782;SDS011;18351;47.560;9.708;2023-02-15T11:51:57;43.75;;;23.60;;
31782;SDS011;18351;47.560;9.708;2023-02-15T11:54:25;46.17;;;24.83;;
31782;SDS011;18351;47.560;9.708;2023-02-15T11:56:55;46.30;;;24.63;;
31782;SDS011;18351;47.560;9.708;2023-02-15T11:59:32;44.65;;;23.88;;
31782;SDS011;18351;47.560;9.708;2023-02-15T12:02:01;44.60;;;23.90;;
31782;SDS011;18351;47.560;9.708;2023-02-15T12:04:32;44.38;;;24.15;;
31782;SDS011;18351;47.560;9.708;2023-02-15T12:07:03;41.17;;;22.63;;
31782;SDS011;18351;47.560;9.708;2023-02-15T12:09:48;40.83;;;23.25;;
31782;SDS011;18351;47.560;9.708;2023-02-15T12:12:21;39.40;;;22.77;;
31782;SDS011;18351;47.560;9.708;2023-02-15T12:14:48;46.97;;;23.85;;
31782;SDS011;18351;47.560;9.708;2023-02-15T12:17:16;37.70;;;22.63;;
31782;SDS011;18351;47.560;9.708;2023-02-15T12:19:43;40.50;;;23.42;;
31782;SDS011;18351;47.560;9.708;2023-02-15T12:22:20;41.70;;;23.20;;
31782;SDS011;18351;47.560;9.708;2023-02-15T12:24:53;46.15;;;24.80;;
31782;SDS011;18351;47.560;9.708;2023-02-15T12:27:22;53.38;;;25.92;;
31782;SDS011;18351;47.560;9.708;2023-02-15T12:32:26;44.63;;;24.13;;
31782;SDS011;18351;47.560;9.708;2023-02-15T12:34:56;46.17;;;24.13;;
31782;SDS011;18351;47.560;9.708;2023-02-15T12:37:27;43.30;;;24.05;;
31782;SDS011;18351;47.560;9.708;2023-02-15T12:39:58;47.53;;;25.38;;
31782;SDS011;18351;47.560;9.708;2023-02-15T12:42:25;48.47;;;24.95;;
31782;SDS011;18351;47.560;9.708;2023-02-15T12:44:53;41.00;;;22.58;;
31782;SDS011;18351;47.560;9.708;2023-02-15T12:47:20;44.85;;;25.75;;
31782;SDS011;18351;47.560;9.708;2023-02-15T12:50:21;46.80;;;25.98;;
31782;SDS011;18351;47.560;9.708;2023-02-15T12:52:47;51.35;;;25.45;;
31782;SDS011;18351;47.560;9.708;2023-02-15T12:55:19;47.63;;;26.42;;
31782;SDS011;18351;47.560;9.708;2023-02-15T12:57:47;49.40;;;25.97;;
31782;SDS011;18351;47.560;9.708;2023-02-15T13:02:46;49.58;;;27.67;;
31782;SDS011;18351;47.560;9.708;2023-02-15T13:07:56;47.60;;;25.95;;
31782;SDS011;18351;47.560;9.708;2023-02-15T13:10:26;46.92;;;26.30;;
31782;SDS011;18351;47.560;9.708;2023-02-15T13:12:58;49.88;;;28.58;;
31782;SDS011;18351;47.560;9.708;2023-02-15T13:15:27;52.67;;;27.90;;
31782;SDS011;18351;47.560;9.708;2023-02-15T13:17:57;50.92;;;25.75;;
31782;SDS011;18351;47.560;9.708;2023-02-15T13:20:24;53.22;;;27.55;;
31782;SDS011;18351;47.560;9.708;2023-02-15T13:22:53;56.78;;;27.13;;
31782;SDS011;18351;47.560;9.708;2023-02-15T13:25:25;53.63;;;27.55;;
31782;SDS011;18351;47.560;9.708;2023-02-15T13:27:55;57.53;;;30.85;;
31782;SDS011;18351;47.560;9.708;2023-02-15T13:30:42;52.03;;;30.30;;
31782;SDS011;18351;47.560;9.708;2023-02-15T13:33:13;56.72;;;28.73;;
31782;SDS011;18351;47.560;9.708;2023-02-15T13:41:15;59.85;;;28.55;;
31782;SDS011;18351;47.560;9.708;2023-02-15T13:46:23;55.45;;;28.88;;
31782;SDS011;18351;47.560;9.708;2023-02-15T13:57:51;51.80;;;27.60;;
31782;SDS011;18351;47.560;9.708;2023-02-15T14:09:37;54.17;;;28.42;;
31782;SDS011;18351;47.560;9.708;2023-02-15T14:12:05;59.47;;;29.65;;
31782;SDS011;18351;47.560;9.708;2023-02-15T14:14:59;55.72;;;28.83;;
31782;SDS011;18351;47.560;9.708;2023-02-15T14:18:03;56.97;;;28.25;;
31782;SDS011;18351;47.560;9.708;2023-02-15T14:20:47;55.97;;;28.77;;
31782;SDS011;18351;47.560;9.708;2023-02-15T14:31:52;48.97;;;22.80;;
31782;SDS011;18351;47.560;9.708;2023-02-15T14:37:06;62.90;;;30.73;;
31782;SDS011;18351;47.560;9.708;2023-02-15T14:42:50;59.35;;;30.20;;
31782;SDS011;18351;47.560;9.708;2023-02-15T14:45:54;57.53;;;28.88;;
31782;SDS011;18351;47.560;9.708;2023-02-15T14:48:42;63.88;;;31.08;;
31782;SDS011;18351;47.560;9.708;2023-02-15T14:54:10;65.85;;;32.55;;
31782;SDS011;18351;47.560;9.708;2023-02-15T14:59:45;63.60;;;31.17;;
31782;SDS011;18351;47.560;9.708;2023-02-15T15:15:32;66.15;;;32.60;;
31782;SDS011;18351;47.560;9.708;2023-02-15T15:18:05;63.47;;;33.63;;
31782;SDS011;18351;47.560;9.708;2023-02-15T15:25:44;59.78;;;31.38;;
31782;SDS011;18351;47.560;9.708;2023-02-15T15:28:58;60.85;;;31.00;;
31782;SDS011;18351;47.560;9.708;2023-02-15T15:31:19;64.18;;;32.53;;
31782;SDS011;18351;47.560;9.708;2023-02-15T15:50:45;70.25;;;34.55;;
31782;SDS011;18351;47.560;9.708;2023-02-15T15:53:17;66.13;;;34.47;;
31782;SDS011;18351;47.560;9.708;2023-02-15T15:55:46;66.85;;;33.90;;
31782;SDS011;18351;47.560;9.708;2023-02-15T15:58:14;70.50;;;33.65;;
31782;SDS011;18351;47.560;9.708;2023-02-15T16:00:47;72.43;;;35.45;;
31782;SDS011;18351;47.560;9.708;2023-02-15T16:03:20;78.55;;;34.30;;
31782;SDS011;18351;47.560;9.708;2023-02-15T16:05:47;73.97;;;35.72;;
31782;SDS011;18351;47.560;9.708;2023-02-15T16:08:25;72.95;;;34.72;;
31782;SDS011;18351;47.560;9.708;2023-02-15T16:10:55;75.63;;;37.17;;
31782;SDS011;18351;47.560;9.708;2023-02-15T16:13:22;79.78;;;38.05;;
31782;SDS011;18351;47.560;9.708;2023-02-15T16:15:52;74.82;;;36.15;;
31782;SDS011;18351;47.560;9.708;2023-02-15T16:18:21;70.85;;;34.25;;
31782;SDS011;18351;47.560;9.708;2023-02-15T16:20:50;72.00;;;36.78;;
31782;SDS011;18351;47.560;9.708;2023-02-15T16:26:29;72.85;;;35.33;;
31782;SDS011;18351;47.560;9.708;2023-02-15T16:29:23;76.88;;;36.50;;
31782;SDS011;18351;47.560;9.708;2023-02-15T16:32:01;103.40;;;38.85;;
31782;SDS011;18351;47.560;9.708;2023-02-15T16:34:30;92.57;;;37.83;;
31782;SDS011;18351;47.560;9.708;2023-02-15T16:37:13;139.60;;;40.38;;
31782;SDS011;18351;47.560;9.708;2023-02-15T16:39:43;138.52;;;41.88;;
31782;SDS011;18351;47.560;9.708;2023-02-15T16:42:11;79.50;;;37.80;;
31782;SDS011;18351;47.560;9.708;2023-02-15T16:44:38;94.50;;;40.22;;
31782;SDS011;18351;47.560;9.708;2023-02-15T16:47:05;103.05;;;43.42;;
31782;SDS011;18351;47.560;9.708;2023-02-15T16:49:56;174.73;;;44.83;;
31782;SDS011;18351;47.560;9.708;2023-02-15T16:52:25;120.43;;;44.63;;
31782;SDS011;18351;47.560;9.708;2023-02-15T16:54:59;97.07;;;43.10;;
31782;SDS011;18351;47.560;9.708;2023-02-15T16:57:30;110.85;;;47.72;;
31782;SDS011;18351;47.560;9.708;2023-02-15T17:00:03;111.43;;;46.90;;
31782;SDS011;18351;47.560;9.708;2023-02-15T17:02:32;97.07;;;43.00;;
31782;SDS011;18351;47.560;9.708;2023-02-15T17:07:41;92.43;;;41.65;;
31782;SDS011;18351;47.560;9.708;2023-02-15T17:10:31;78.38;;;38.50;;
31782;SDS011;18351;47.560;9.708;2023-02-15T17:13:01;114.13;;;42.78;;
31782;SDS011;18351;47.560;9.708;2023-02-15T17:18:16;159.25;;;48.72;;
31782;SDS011;18351;47.560;9.708;2023-02-15T17:20:49;182.75;;;60.08;;
31782;SDS011;18351;47.560;9.708;2023-02-15T17:23:33;293.58;;;87.18;;
31782;SDS011;18351;47.560;9.708;2023-02-15T17:26:01;143.38;;;49.33;;
31782;SDS011;18351;47.560;9.708;2023-02-15T17:28:40;90.90;;;42.90;;
31782;SDS011;18351;47.560;9.708;2023-02-15T17:31:12;132.40;;;42.60;;
31782;SDS011;18351;47.560;9.708;2023-02-15T17:33:39;76.47;;;37.70;;
31782;SDS011;18351;47.560;9.708;2023-02-15T17:36:05;87.78;;;41.22;;